Hauptseite
METAR-TAF:

METAR-TAF

Flughäfen :

Bohrplattform

P11-b, Niederlande

Breite: 52-21-36N, Länge: 3-20-30E, Höhe: 24 m

Beobachtung

Neuester Wetterbericht von vor 15 Minuten, um 19:55 UTC
Wind 6 kt aus Nord/Nordost, variierte zwischen Nord/Nordwest und Nordost
Temperatur 5°C
Luftfeuchtigkeit 52%
Luftdruck 1021 hPa
Sichtweite 10 km oder mehr

METAR: EHPG 201955Z AUTO 02006KT 340V050 9999 NCD 05/M04 Q1021 W///H///

Zeit: 21:10 (20:10 UTC)


TAF: fehlend

Wetterbeobachtungen und Prognosen von mehr als 4000 Flughäfen (METAR und TAF Bericht).

Die verfügbaren Stationen werden durch gelbe und rote Markierungen auf der Karte dargestellt.

Führen Sie die Maus auf sie, um den Namen der Station zu sehen.

Darauf klicken, um die Beobachtung von Wetterbeobachtungen und Prognosen zu sehen.

Um die Karte zu ändern : klicken Sie auf den grünen Tasten mit einem schwarzen Kreuz Zum Vergrößern, auf den grünen Button mit einem Gedankenstrich zu verkleinern, oder auf die grünen Pfeile für benachbarte Karten.


METAR-TAF: